Time;durP1;ratioP1;P1;durP2;ratioP2;P2;SDS_P1;SDS_P2;PMS_P1;PMS_P2;Temp;Humidity;BMP_temperature;BMP_pressure;BME280_temperature;BME280_humidity;BME280_pressure;Samples;Min_cycle;Max_cycle;Signal;HPM_P1;HPM_P2
2023/04/07 00:00:26;;;;;;;26.35;23.55;;;7.20;99.90;;;;;;5025133;28;20081;-75
2023/04/07 00:02:52;;;;;;;28.40;25.40;;;7.20;99.90;;;;;;5021517;28;20374;-75
2023/04/07 00:05:18;;;;;;;27.65;24.75;;;7.20;99.90;;;;;;5021687;28;20118;-75
2023/04/07 00:07:44;;;;;;;27.40;24.33;;;7.20;99.90;;;;;;5021592;28;20102;-74
2023/04/07 00:10:09;;;;;;;29.50;25.02;;;7.20;99.90;;;;;;5021453;28;20463;-75
2023/04/07 00:12:35;;;;;;;25.50;22.90;;;7.20;99.90;;;;;;5084073;28;20037;-75
2023/04/07 00:15:01;;;;;;;28.38;25.38;;;7.20;99.90;;;;;;5020278;28;20153;-75
2023/04/07 00:17:27;;;;;;;28.80;25.20;;;7.20;99.90;;;;;;5116924;27;20060;-75
2023/04/07 00:19:52;;;;;;;28.90;25.83;;;7.20;99.90;;;;;;5020195;27;20065;-75
2023/04/07 00:22:18;;;;;;;28.65;25.55;;;7.20;99.90;;;;;;5019705;28;20045;-75
2023/04/07 00:24:43;;;;;;;31.85;27.35;;;7.20;99.90;;;;;;5021061;28;20042;-75
2023/04/07 00:27:09;;;;;;;31.38;27.13;;;7.20;99.90;;;;;;5021634;28;20034;-75
2023/04/07 00:29:35;;;;;;;30.63;25.70;;;7.20;99.90;;;;;;5019916;28;20556;-75
2023/04/07 00:32:00;;;;;;;29.92;26.52;;;7.20;99.90;;;;;;5020854;28;20048;-75
2023/04/07 00:34:26;;;;;;;28.20;25.23;;;7.20;99.90;;;;;;5021045;28;20062;-75
2023/04/07 00:36:52;;;;;;;30.35;26.05;;;7.20;99.90;;;;;;5083992;28;20056;-75
2023/04/07 00:39:18;;;;;;;29.40;26.02;;;7.20;99.90;;;;;;5020796;28;20076;-75
2023/04/07 00:41:44;;;;;;;28.95;25.75;;;7.20;99.90;;;;;;5020167;28;20525;-75
2023/04/07 00:44:10;;;;;;;29.83;26.48;;;7.20;99.90;;;;;;5084130;28;20041;-75
2023/04/07 00:46:36;;;;;;;28.95;25.85;;;7.20;99.90;;;;;;5019069;28;20146;-75
2023/04/07 00:49:02;;;;;;;28.95;25.92;;;7.20;99.90;;;;;;5020773;28;21286;-75
2023/04/07 00:51:27;;;;;;;29.25;26.10;;;7.20;99.90;;;;;;5017619;28;20041;-75
2023/04/07 00:53:54;;;;;;;27.33;24.45;;;7.20;99.90;;;;;;5015680;28;20045;-75
2023/04/07 00:56:19;;;;;;;28.23;25.17;;;7.20;99.90;;;;;;5080153;28;20116;-75
2023/04/07 00:58:45;;;;;;;29.80;26.70;;;7.20;99.90;;;;;;5018931;28;20113;-75
2023/04/07 01:01:32;;;;;;;27.83;24.92;;;7.20;99.90;;;;;;5016869;28;20120;-75
2023/04/07 01:04:07;;;;;;;28.67;25.52;;;7.20;99.90;;;;;;5025696;28;20495;-75
2023/04/07 01:06:37;;;;;;;31.15;27.48;;;7.20;99.90;;;;;;5026496;28;20065;-75
2023/04/07 01:09:36;;;;;;;27.95;24.70;;;7.20;99.90;;;;;;5025329;28;20041;-74
2023/04/07 01:12:09;;;;;;;29.77;26.67;;;7.20;99.90;;;;;;5074893;27;20041;-74
2023/04/07 01:14:41;;;;;;;28.48;25.63;;;7.20;99.90;;;;;;5091870;28;20128;-75
2023/04/07 01:17:10;;;;;;;29.90;26.70;;;7.20;99.90;;;;;;5025153;28;20057;-74
2023/04/07 01:19:41;;;;;;;33.67;28.25;;;7.20;99.90;;;;;;5031100;28;20060;-74
2023/04/07 01:22:14;;;;;;;32.20;28.65;;;7.20;99.90;;;;;;5025958;28;20050;-74
2023/04/07 01:25:09;;;;;;;34.22;29.48;;;7.20;99.90;;;;;;5081385;27;20500;-74
2023/04/07 01:27:37;;;;;;;30.08;26.88;;;7.20;99.90;;;;;;5025762;28;20403;-74
2023/04/07 01:30:06;;;;;;;29.35;26.23;;;7.20;99.90;;;;;;5026329;28;20043;-74
2023/04/07 01:32:34;;;;;;;28.85;25.83;;;7.20;99.90;;;;;;5025824;28;20063;-74
2023/04/07 01:35:01;;;;;;;29.75;26.27;;;7.20;99.90;;;;;;5026008;28;20074;-74
2023/04/07 01:37:28;;;;;;;30.45;27.15;;;7.20;99.90;;;;;;5019791;28;20120;-74
2023/04/07 01:39:53;;;;;;;30.35;26.67;;;7.20;99.90;;;;;;5017606;28;20041;-73
2023/04/07 01:42:20;;;;;;;33.22;29.63;;;7.20;99.90;;;;;;5018652;28;20106;-73
2023/04/07 01:44:48;;;;;;;30.42;26.92;;;7.20;99.90;;;;;;5080737;28;20055;-74
2023/04/07 01:47:14;;;;;;;39.65;29.98;;;7.20;99.90;;;;;;5025428;28;20041;-74
2023/04/07 01:49:40;;;;;;;29.98;26.77;;;7.20;99.90;;;;;;5028834;28;20074;-74
2023/04/07 01:52:07;;;;;;;34.00;29.50;;;7.20;99.90;;;;;;5024480;28;20428;-74
2023/04/07 01:54:34;;;;;;;29.08;26.10;;;7.20;99.90;;;;;;5025621;28;20038;-74
2023/04/07 01:57:00;;;;;;;30.58;27.27;;;7.20;99.90;;;;;;5024526;28;20057;-74
2023/04/07 01:59:26;;;;;;;30.40;27.13;;;7.20;99.90;;;;;;5024803;28;20045;-74
2023/04/07 02:01:52;;;;;;;32.60;27.70;;;7.20;99.90;;;;;;5025420;28;20050;-75
2023/04/07 02:04:28;;;;;;;29.13;26.02;;;7.20;99.90;;;;;;5025128;28;20094;-74
2023/04/07 02:07:14;;;;;;;29.55;26.40;;;7.20;99.90;;;;;;5025193;28;20730;-74
2023/04/07 02:09:41;;;;;;;30.58;26.20;;;7.30;99.90;;;;;;5018658;28;20041;-74
2023/04/07 02:12:10;;;;;;;28.57;25.57;;;7.20;99.90;;;;;;5018599;28;20041;-74
2023/04/07 02:14:37;;;;;;;27.90;25.02;;;7.20;99.90;;;;;;5070599;28;20128;-74
2023/04/07 02:17:04;;;;;;;33.65;28.55;;;7.20;99.90;;;;;;5025013;28;20182;-74
2023/04/07 02:19:31;;;;;;;27.88;24.90;;;7.20;99.90;;;;;;5024845;28;20087;-74
2023/04/07 02:22:00;;;;;;;27.17;24.30;;;7.20;99.90;;;;;;5082570;28;20046;-74
2023/04/07 02:24:25;;;;;;;27.27;24.42;;;7.20;99.90;;;;;;5019394;28;20034;-74
2023/04/07 02:26:51;;;;;;;31.55;27.88;;;7.20;99.90;;;;;;5018310;28;20049;-74
2023/04/07 02:29:17;;;;;;;27.38;24.58;;;7.20;99.90;;;;;;5018711;28;20464;-74
2023/04/07 02:31:42;;;;;;;29.58;26.33;;;7.20;99.90;;;;;;5020531;28;20132;-74
2023/04/07 02:34:08;;;;;;;28.50;25.50;;;7.20;99.90;;;;;;5014634;28;20045;-74
2023/04/07 02:36:33;;;;;;;30.98;27.42;;;7.20;99.90;;;;;;5014772;28;20120;-74
2023/04/07 02:38:59;;;;;;;31.25;26.98;;;7.20;99.90;;;;;;5019855;28;20418;-74
2023/04/07 02:41:25;;;;;;;28.50;25.33;;;7.20;99.90;;;;;;5080619;28;20175;-74
2023/04/07 02:43:50;;;;;;;31.83;26.98;;;7.20;99.90;;;;;;5015568;28;20037;-74
2023/04/07 02:46:16;;;;;;;32.03;26.92;;;7.20;99.90;;;;;;5015918;28;20133;-74
2023/04/07 02:48:42;;;;;;;28.52;25.50;;;7.20;99.90;;;;;;5020818;28;20462;-74
2023/04/07 02:51:07;;;;;;;32.38;27.20;;;7.20;99.90;;;;;;5017426;28;20047;-74
2023/04/07 02:53:33;;;;;;;28.33;25.42;;;7.20;99.90;;;;;;5017702;28;20044;-74
2023/04/07 02:55:58;;;;;;;35.17;27.58;;;7.20;99.90;;;;;;5014909;28;20394;-74
2023/04/07 02:58:24;;;;;;;29.88;26.63;;;7.20;99.90;;;;;;5020390;28;20144;-74
2023/04/07 03:00:50;;;;;;;31.63;26.40;;;7.20;99.90;;;;;;5020653;28;20048;-74
2023/04/07 03:03:15;;;;;;;27.52;24.65;;;7.20;99.90;;;;;;5024574;28;20051;-74
2023/04/07 03:05:41;;;;;;;31.23;25.67;;;7.20;99.90;;;;;;5027863;27;20033;-74
2023/04/07 03:08:06;;;;;;;28.95;25.85;;;7.20;99.90;;;;;;5034997;27;20034;-74
2023/04/07 03:10:32;;;;;;;33.97;28.35;;;7.20;99.90;;;;;;5027539;27;20372;-73
2023/04/07 03:12:58;;;;;;;31.38;28.00;;;7.20;99.90;;;;;;5031443;27;20045;-74
2023/04/07 03:15:23;;;;;;;29.65;26.45;;;7.20;99.90;;;;;;5029027;28;20560;-74
2023/04/07 03:17:49;;;;;;;34.22;28.20;;;7.20;99.90;;;;;;5028112;27;20050;-73
2023/04/07 03:20:16;;;;;;;28.55;25.58;;;7.20;99.90;;;;;;5031488;27;20533;-74
2023/04/07 03:22:41;;;;;;;29.85;26.65;;;7.20;99.90;;;;;;5025631;27;20044;-73
2023/04/07 03:25:07;;;;;;;31.35;26.73;;;7.20;99.90;;;;;;5027684;27;20039;-74
2023/04/07 03:27:33;;;;;;;33.33;28.02;;;7.20;99.90;;;;;;5030167;27;20061;-73
2023/04/07 03:29:58;;;;;;;28.95;25.83;;;7.20;99.90;;;;;;5023040;28;20116;-73
2023/04/07 03:32:24;;;;;;;33.63;27.23;;;7.30;99.90;;;;;;5018759;28;20049;-75
2023/04/07 03:34:49;;;;;;;28.75;25.20;;;7.20;99.90;;;;;;5022220;27;20814;-78
2023/04/07 03:37:15;;;;;;;33.15;26.45;;;7.20;99.90;;;;;;5064535;28;20045;-74
2023/04/07 03:39:41;;;;;;;28.02;25.05;;;7.20;99.90;;;;;;5017835;28;20602;-74
2023/04/07 03:42:07;;;;;;;27.65;24.67;;;7.20;99.90;;;;;;5023883;27;20125;-78
2023/04/07 03:44:32;;;;;;;27.00;24.10;;;7.30;99.90;;;;;;5115289;27;20156;-73
2023/04/07 03:46:59;;;;;;;29.48;25.27;;;7.20;99.90;;;;;;5113184;27;20459;-73
2023/04/07 03:49:24;;;;;;;25.50;22.83;;;7.20;99.90;;;;;;5090480;28;20054;-73
2023/04/07 03:51:50;;;;;;;25.45;22.77;;;7.20;99.90;;;;;;5021834;28;20041;-73
2023/04/07 03:54:15;;;;;;;25.27;22.35;;;7.20;99.90;;;;;;5082721;28;20041;-73
2023/04/07 03:56:41;;;;;;;28.88;23.92;;;7.20;99.90;;;;;;5021476;28;20132;-73
2023/04/07 03:59:07;;;;;;;24.35;21.75;;;7.20;99.90;;;;;;5083258;28;20050;-73
2023/04/07 04:01:32;;;;;;;25.83;22.33;;;7.20;99.90;;;;;;5020931;28;20487;-73
2023/04/07 04:03:58;;;;;;;26.55;22.75;;;7.20;99.90;;;;;;5020415;28;20073;-73
2023/04/07 04:06:25;;;;;;;28.65;23.27;;;7.20;99.90;;;;;;5021204;28;20080;-73
2023/04/07 04:08:50;;;;;;;24.30;21.40;;;7.20;99.90;;;;;;5020689;28;20110;-73
2023/04/07 04:11:16;;;;;;;26.63;22.63;;;7.20;99.90;;;;;;5084540;28;20053;-73
2023/04/07 04:13:42;;;;;;;27.13;22.15;;;7.20;99.90;;;;;;5086435;28;20463;-73
2023/04/07 04:16:07;;;;;;;23.52;21.00;;;7.10;99.90;;;;;;5020197;28;20649;-73
2023/04/07 04:18:33;;;;;;;25.05;21.73;;;7.20;99.90;;;;;;5019068;28;20060;-73
2023/04/07 04:20:59;;;;;;;23.63;21.23;;;7.20;99.90;;;;;;5022909;28;20178;-74
2023/04/07 04:23:24;;;;;;;26.83;22.33;;;7.20;99.90;;;;;;5020794;28;20612;-74
2023/04/07 04:25:50;;;;;;;28.05;23.55;;;7.20;99.90;;;;;;5021025;28;20042;-74
2023/04/07 04:28:16;;;;;;;26.45;23.63;;;7.20;99.90;;;;;;5025305;28;20049;-74
2023/04/07 04:30:41;;;;;;;26.98;23.88;;;7.20;99.90;;;;;;5020457;28;20449;-73
2023/04/07 04:33:07;;;;;;;32.72;26.23;;;7.20;99.90;;;;;;5016179;28;20129;-74
2023/04/07 04:35:33;;;;;;;33.13;26.10;;;7.10;99.90;;;;;;5080051;28;20033;-74
2023/04/07 04:37:59;;;;;;;27.60;23.73;;;7.20;99.90;;;;;;5017061;28;20044;-74
2023/04/07 04:40:24;;;;;;;27.73;23.15;;;7.10;99.90;;;;;;5020736;28;20433;-74
2023/04/07 04:42:50;;;;;;;28.02;25.02;;;7.10;99.90;;;;;;5018892;28;20328;-73
2023/04/07 04:45:16;;;;;;;28.15;23.00;;;7.10;99.90;;;;;;5018648;28;20677;-73
2023/04/07 04:47:42;;;;;;;29.88;24.10;;;7.10;99.90;;;;;;5082448;28;20399;-73
2023/04/07 04:50:09;;;;;;;25.35;22.65;;;7.10;99.90;;;;;;5017413;28;20049;-73
2023/04/07 04:52:34;;;;;;;25.75;22.95;;;7.10;99.90;;;;;;5017551;28;20034;-73
2023/04/07 04:55:00;;;;;;;30.73;24.60;;;7.10;99.90;;;;;;5024364;27;20601;-73
2023/04/07 04:57:26;;;;;;;27.23;23.27;;;7.10;99.90;;;;;;5017272;28;20083;-74
2023/04/07 04:59:51;;;;;;;27.90;24.35;;;7.10;99.90;;;;;;5020521;28;20121;-73
2023/04/07 05:02:17;;;;;;;29.80;25.02;;;7.00;99.90;;;;;;5075015;28;20045;-73
2023/04/07 05:04:42;;;;;;;32.92;25.80;;;7.10;99.90;;;;;;5075869;28;20113;-73
2023/04/07 05:07:08;;;;;;;28.52;24.25;;;7.10;99.90;;;;;;5091028;28;20153;-73
2023/04/07 05:09:33;;;;;;;26.15;22.17;;;7.00;99.90;;;;;;5026100;28;20494;-73
2023/04/07 05:12:00;;;;;;;26.88;22.73;;;7.00;99.90;;;;;;5026089;28;20057;-73
2023/04/07 05:14:26;;;;;;;28.95;23.23;;;7.00;99.90;;;;;;5093937;28;20053;-73
2023/04/07 05:16:53;;;;;;;28.15;22.67;;;7.00;99.90;;;;;;5029476;28;20049;-73
2023/04/07 05:19:18;;;;;;;24.05;20.55;;;7.00;99.90;;;;;;5025316;28;20049;-73
2023/04/07 05:21:44;;;;;;;29.75;23.67;;;7.00;99.90;;;;;;5028272;28;20052;-73
2023/04/07 05:24:10;;;;;;;28.42;22.92;;;6.90;99.90;;;;;;5025654;28;20045;-73
2023/04/07 05:26:35;;;;;;;28.10;22.75;;;7.00;99.90;;;;;;5025844;28;20090;-73
2023/04/07 05:29:01;;;;;;;31.08;24.63;;;6.90;99.90;;;;;;5092111;28;20405;-73
2023/04/07 05:31:27;;;;;;;29.48;23.40;;;7.00;99.90;;;;;;5028729;28;20030;-73
2023/04/07 05:33:52;;;;;;;26.10;22.75;;;6.90;99.90;;;;;;5025808;28;20037;-73
2023/04/07 05:36:18;;;;;;;31.35;24.73;;;7.00;99.90;;;;;;5022230;28;20491;-73
2023/04/07 05:38:44;;;;;;;28.35;22.38;;;6.90;99.90;;;;;;5017646;28;20074;-73
2023/04/07 05:41:10;;;;;;;27.52;23.23;;;7.00;99.90;;;;;;5015356;28;20464;-73
2023/04/07 05:43:35;;;;;;;29.52;23.92;;;7.00;99.90;;;;;;5021008;28;20041;-73
2023/04/07 05:46:01;;;;;;;26.50;23.15;;;7.00;99.90;;;;;;5019909;28;20583;-73
2023/04/07 05:48:26;;;;;;;26.52;22.33;;;7.00;99.90;;;;;;5023233;28;20043;-73
2023/04/07 05:50:52;;;;;;;29.55;24.77;;;7.00;99.90;;;;;;5019002;28;20092;-73
2023/04/07 05:53:18;;;;;;;27.73;23.73;;;7.00;99.90;;;;;;5023438;28;20068;-73
2023/04/07 05:55:43;;;;;;;33.45;25.25;;;7.00;99.90;;;;;;5023533;28;20509;-73
2023/04/07 05:58:09;;;;;;;29.23;24.08;;;7.10;99.90;;;;;;5019897;28;20064;-73
2023/04/07 06:00:34;;;;;;;28.85;25.10;;;7.10;99.90;;;;;;5017310;28;20041;-73
2023/04/07 06:03:01;;;;;;;31.08;25.67;;;7.10;99.90;;;;;;5020113;28;20074;-73
2023/04/07 06:05:26;;;;;;;34.90;26.92;;;7.10;99.90;;;;;;5019403;28;20055;-73
2023/04/07 06:07:53;;;;;;;31.73;24.73;;;7.10;99.90;;;;;;5019427;28;20492;-73
2023/04/07 06:10:19;;;;;;;34.30;26.90;;;7.10;99.90;;;;;;5017597;28;20066;-73
2023/04/07 06:12:44;;;;;;;32.22;25.92;;;7.10;99.90;;;;;;5018445;28;20030;-73
2023/04/07 06:15:10;;;;;;;31.27;26.55;;;7.10;99.90;;;;;;5019209;28;20083;-73
2023/04/07 06:17:36;;;;;;;37.65;28.67;;;7.10;99.90;;;;;;5018552;28;20034;-73
2023/04/07 06:20:01;;;;;;;31.92;26.02;;;7.10;99.90;;;;;;5018416;28;20049;-74
2023/04/07 06:22:27;;;;;;;33.95;27.20;;;7.20;99.90;;;;;;5022314;28;20116;-73
2023/04/07 06:24:53;;;;;;;31.42;26.42;;;7.10;99.90;;;;;;5018847;28;20098;-73
2023/04/07 06:27:19;;;;;;;32.80;26.42;;;7.20;99.90;;;;;;5019390;28;20050;-73
2023/04/07 06:29:45;;;;;;;29.88;25.75;;;7.20;99.90;;;;;;5018124;28;20077;-73
2023/04/07 06:32:11;;;;;;;29.20;25.90;;;7.30;99.90;;;;;;5020224;28;20076;-73
2023/04/07 06:34:37;;;;;;;31.88;26.55;;;7.30;99.90;;;;;;5020242;28;20046;-73
2023/04/07 06:37:04;;;;;;;29.77;25.45;;;7.20;99.90;;;;;;5064949;28;20053;-73
2023/04/07 06:39:29;;;;;;;27.88;24.20;;;7.30;99.90;;;;;;5022507;28;20398;-74
2023/04/07 06:41:56;;;;;;;31.45;25.67;;;7.30;99.90;;;;;;5087027;28;20045;-75
2023/04/07 06:44:22;;;;;;;31.58;26.42;;;;;;;;;;5019940;28;20176;-75
2023/04/07 06:46:51;;;;;;;27.85;24.88;;;7.50;99.90;;;;;;5088069;28;20049;-74
2023/04/07 06:49:17;;;;;;;30.33;26.30;;;7.50;99.90;;;;;;5016803;28;20509;-74
2023/04/07 06:51:43;;;;;;;27.75;24.88;;;7.50;99.90;;;;;;5014855;28;20041;-75
2023/04/07 06:54:12;;;;;;;27.65;24.65;;;7.60;99.90;;;;;;5119111;27;20406;-76
2023/04/07 06:56:38;;;;;;;27.25;24.33;;;7.70;99.90;;;;;;5026166;28;20285;-75
2023/04/07 06:59:04;;;;;;;26.27;23.35;;;7.80;99.90;;;;;;5091589;28;20053;-76
2023/04/07 07:01:30;;;;;;;27.48;23.88;;;7.90;99.90;;;;;;5021653;28;20514;-74
2023/04/07 07:03:55;;;;;;;25.15;22.55;;;7.90;99.90;;;;;;5073142;28;20045;-74
2023/04/07 07:06:21;;;;;;;24.70;22.10;;;8.00;99.90;;;;;;5029685;27;20040;-76
2023/04/07 07:08:47;;;;;;;24.90;22.40;;;8.00;99.90;;;;;;5037382;27;20036;-75
2023/04/07 07:11:12;;;;;;;25.15;22.45;;;8.10;99.90;;;;;;5094562;28;20496;-76
2023/04/07 07:13:38;;;;;;;25.60;23.00;;;8.20;99.90;;;;;;5093958;28;20037;-74
2023/04/07 07:16:04;;;;;;;24.65;22.25;;;8.20;99.90;;;;;;5093330;28;20110;-75
2023/04/07 07:18:29;;;;;;;24.52;22.00;;;8.30;99.90;;;;;;5092101;28;20056;-74
2023/04/07 07:20:55;;;;;;;23.58;21.20;;;8.30;99.90;;;;;;5094842;28;20125;-74
2023/04/07 07:23:21;;;;;;;24.55;21.98;;;8.30;99.90;;;;;;5030034;27;20540;-73
2023/04/07 07:25:46;;;;;;;22.98;20.67;;;8.20;99.90;;;;;;5027945;28;20037;-75
2023/04/07 07:28:12;;;;;;;23.33;20.90;;;8.20;99.90;;;;;;5029792;27;20048;-75
2023/04/07 07:30:40;;;;;;;21.80;19.60;;;8.30;99.90;;;;;;5031910;28;20044;-79
2023/04/07 07:33:05;;;;;;;21.83;19.73;;;8.30;99.90;;;;;;5105047;27;20047;-79
2023/04/07 07:35:31;;;;;;;22.75;20.48;;;8.20;99.90;;;;;;5055901;27;20356;-78
2023/04/07 07:37:57;;;;;;;21.83;19.52;;;8.30;99.90;;;;;;5039456;28;20033;-79
2023/04/07 07:40:23;;;;;;;21.20;19.17;;;8.30;99.90;;;;;;5025974;28;20045;-77
2023/04/07 07:42:48;;;;;;;21.90;19.70;;;8.40;99.90;;;;;;5030082;27;20083;-77
2023/04/07 07:45:18;;;;;;;22.25;20.02;;;8.30;99.90;;;;;;5032448;28;20818;-77
2023/04/07 07:47:44;;;;;;;22.42;20.23;;;8.40;99.90;;;;;;5034731;28;20041;-77
2023/04/07 07:50:10;;;;;;;21.75;19.55;;;8.40;99.90;;;;;;5010794;28;20068;-77
2023/04/07 07:52:36;;;;;;;22.88;20.08;;;8.40;99.90;;;;;;5030305;27;20034;-77
2023/04/07 07:55:03;;;;;;;20.85;18.95;;;8.50;99.90;;;;;;5031155;27;20037;-77
2023/04/07 07:57:30;;;;;;;20.10;18.10;;;8.70;99.90;;;;;;5022790;27;20479;-77
2023/04/07 07:59:55;;;;;;;22.13;20.02;;;8.70;99.90;;;;;;5023987;28;20058;-77
2023/04/07 08:02:21;;;;;;;21.58;19.27;;;8.70;99.90;;;;;;5065375;28;20075;-77
2023/04/07 08:04:46;;;;;;;19.48;17.48;;;8.80;99.90;;;;;;5024126;27;20057;-78
2023/04/07 08:07:12;;;;;;;18.50;16.70;;;8.90;99.90;;;;;;5090108;28;20134;-78
2023/04/07 08:09:38;;;;;;;18.63;16.83;;;9.10;99.90;;;;;;5028104;28;20364;-77
2023/04/07 08:12:03;;;;;;;19.88;17.77;;;9.10;99.90;;;;;;5022896;28;20117;-78
2023/04/07 08:14:29;;;;;;;17.63;15.82;;;9.10;99.90;;;;;;5026736;28;20044;-77
2023/04/07 08:16:54;;;;;;;18.40;16.55;;;9.10;99.90;;;;;;5100624;27;20069;-77
2023/04/07 08:19:20;;;;;;;18.65;16.80;;;9.10;99.90;;;;;;5087730;28;20069;-77
2023/04/07 08:21:46;;;;;;;17.55;15.85;;;9.00;99.90;;;;;;5025769;27;20033;-77
2023/04/07 08:24:11;;;;;;;16.65;15.05;;;9.20;99.90;;;;;;5026043;27;20046;-77
2023/04/07 08:26:37;;;;;;;17.40;15.85;;;9.20;99.90;;;;;;5026242;28;20253;-77
2023/04/07 08:29:03;;;;;;;17.92;16.33;;;9.30;99.90;;;;;;5027944;27;20164;-77
2023/04/07 08:31:28;;;;;;;17.67;15.88;;;9.50;99.90;;;;;;5027137;27;20431;-77
2023/04/07 08:33:57;;;;;;;15.50;14.10;;;9.20;99.90;;;;;;5023695;27;20090;-77
2023/04/07 08:36:22;;;;;;;;;;;9.20;99.90;;;;;;5020268;27;20084;-78
2023/04/07 08:38:48;;;;;;;16.42;14.85;;;9.30;99.90;;;;;;5021900;28;20199;-77
2023/04/07 08:41:19;;;;;;;16.60;14.93;;;9.30;99.90;;;;;;5020701;27;20400;-77
2023/04/07 08:43:48;;;;;;;16.42;14.82;;;9.20;99.90;;;;;;5021551;27;20098;-77
2023/04/07 08:46:14;;;;;;;17.98;16.27;;;9.10;99.90;;;;;;5026582;27;21267;-77
2023/04/07 08:48:43;;;;;;;17.15;15.43;;;9.20;99.90;;;;;;5081898;28;20146;-77
2023/04/07 08:51:12;;;;;;;17.60;15.80;;;9.30;99.90;;;;;;5086961;27;20377;-78
2023/04/07 08:53:49;;;;;;;16.48;14.98;;;9.40;99.90;;;;;;5022197;27;20045;-78
2023/04/07 08:56:17;;;;;;;15.48;14.02;;;9.20;99.90;;;;;;5032911;28;20406;-78
2023/04/07 08:58:43;;;;;;;;;;;9.30;99.90;;;;;;5031923;27;20431;-77
2023/04/07 09:01:10;;;;;;;13.70;12.32;;;9.50;99.90;;;;;;5089339;28;19929;-77
2023/04/07 09:03:36;;;;;;;14.65;13.27;;;9.40;99.90;;;;;;5089585;28;20065;-77
2023/04/07 09:06:03;;;;;;;14.10;12.70;;;9.30;99.90;;;;;;5084233;28;20057;-77
2023/04/07 09:08:29;;;;;;;14.02;12.73;;;9.20;99.90;;;;;;5023006;28;20155;-78
2023/04/07 09:10:57;;;;;;;12.73;11.52;;;9.20;99.90;;;;;;5026660;28;20489;-78
2023/04/07 09:13:25;;;;;;;13.00;11.80;;;9.10;99.90;;;;;;5041804;27;20083;-78
2023/04/07 09:15:52;;;;;;;14.60;13.30;;;10.60;99.90;;;;;;5037973;27;20039;-78
2023/04/07 09:18:19;;;;;;;13.95;12.65;;;9.10;99.90;;;;;;5026998;28;20041;-77
2023/04/07 09:20:57;;;;;;;13.73;12.45;;;9.20;99.90;;;;;;5024956;28;20565;-78
2023/04/07 09:23:28;;;;;;;14.18;12.88;;;9.30;99.90;;;;;;5087102;27;20045;-78
2023/04/07 09:25:54;;;;;;;12.52;11.32;;;9.30;99.90;;;;;;5020335;28;20049;-78
2023/04/07 09:28:21;;;;;;;11.82;10.73;;;9.20;99.90;;;;;;5024825;27;20095;-78
2023/04/07 09:30:54;;;;;;;11.68;10.10;;;9.20;99.90;;;;;;5028677;28;20049;-78
2023/04/07 09:33:27;;;;;;;11.85;10.75;;;9.30;99.90;;;;;;5026822;28;21501;-77
2023/04/07 09:35:53;;;;;;;8.77;7.85;;;9.20;99.90;;;;;;5092078;28;20502;-77
2023/04/07 09:38:19;;;;;;;10.75;9.75;;;9.20;99.90;;;;;;5022507;27;20058;-77
2023/04/07 09:40:44;;;;;;;10.10;9.10;;;9.30;99.90;;;;;;5028974;28;20139;-77
2023/04/07 09:43:18;;;;;;;9.25;8.35;;;9.20;99.90;;;;;;5027013;28;20120;-78
2023/04/07 09:45:43;;;;;;;9.02;8.23;;;9.30;99.90;;;;;;5038190;28;20090;-78
2023/04/07 09:48:20;;;;;;;11.02;9.00;;;9.40;99.90;;;;;;5026497;27;20038;-78
2023/04/07 09:50:50;;;;;;;9.23;8.43;;;9.30;99.90;;;;;;5026714;28;20064;-78
2023/04/07 09:53:18;;;;;;;9.20;8.40;;;9.40;99.90;;;;;;5024645;28;20140;-77
2023/04/07 09:55:44;;;;;;;8.35;7.55;;;9.30;99.90;;;;;;5026875;28;20037;-77
2023/04/07 09:58:14;;;;;;;9.18;8.35;;;9.30;99.90;;;;;;5086027;28;21354;-78
2023/04/07 10:00:40;;;;;;;8.73;7.97;;;9.40;99.90;;;;;;5019131;28;20157;-77
2023/04/07 10:03:06;;;;;;;9.95;8.95;;;9.50;99.90;;;;;;5021444;28;20132;-78
2023/04/07 10:05:34;;;;;;;9.20;8.40;;;9.80;99.90;;;;;;5027660;28;20030;-78
2023/04/07 10:08:01;;;;;;;;;;;9.80;99.90;;;;;;5031282;28;20049;-78
2023/04/07 10:10:27;;;;;;;9.07;8.27;;;9.80;99.90;;;;;;5024523;28;20012;-78
2023/04/07 10:12:55;;;;;;;8.88;8.07;;;9.90;99.90;;;;;;5081963;27;21594;-77
2023/04/07 10:15:22;;;;;;;8.05;7.35;;;9.80;99.90;;;;;;5029617;27;20116;-77
2023/04/07 10:17:48;;;;;;;7.82;7.13;;;9.80;99.90;;;;;;5027581;27;20034;-77
2023/04/07 10:20:17;;;;;;;8.18;7.47;;;9.70;99.90;;;;;;5087581;28;20050;-78
2023/04/07 10:22:43;;;;;;;8.85;8.10;;;9.80;99.90;;;;;;5025710;28;20440;-77
2023/04/07 10:25:12;;;;;;;8.38;7.68;;;9.80;99.90;;;;;;5118452;27;20053;-78
2023/04/07 10:27:49;;;;;;;8.50;7.80;;;9.90;99.90;;;;;;5024667;28;20130;-78
2023/04/07 10:30:19;;;;;;;8.02;7.43;;;10.00;99.90;;;;;;5028147;27;20037;-78
2023/04/07 10:32:46;;;;;;;6.68;6.13;;;10.10;99.90;;;;;;5027003;28;20050;-78
2023/04/07 10:35:12;;;;;;;8.02;7.22;;;10.20;99.90;;;;;;5022785;28;20046;-77
2023/04/07 10:37:37;;;;;;;7.10;6.50;;;10.10;99.90;;;;;;5027436;27;20267;-77
2023/04/07 10:40:18;;;;;;;6.93;6.32;;;10.20;99.90;;;;;;5024551;27;21489;-78
2023/04/07 10:42:46;;;;;;;7.63;6.93;;;10.10;99.90;;;;;;5025075;27;20055;-78
2023/04/07 10:45:13;;;;;;;7.47;6.47;;;10.20;99.90;;;;;;5090605;27;20140;-77
2023/04/07 10:47:57;;;;;;;6.80;6.20;;;10.10;99.90;;;;;;5091506;28;20403;-78
2023/04/07 10:50:24;;;;;;;6.72;6.15;;;10.20;99.90;;;;;;5022961;28;20081;-77
2023/04/07 10:53:11;;;;;;;6.97;6.40;;;10.10;99.90;;;;;;5027132;28;20045;-77
2023/04/07 10:55:43;;;;;;;7.15;6.55;;;10.20;99.90;;;;;;5025440;27;20046;-77
2023/04/07 10:58:16;;;;;;;6.60;6.00;;;10.10;99.90;;;;;;5028611;27;20049;-78
2023/04/07 11:01:05;;;;;;;7.93;7.22;;;10.00;99.90;;;;;;5023274;27;20033;-77
2023/04/07 11:03:33;;;;;;;7.25;6.60;;;10.10;99.90;;;;;;5024302;28;20045;-77
2023/04/07 11:06:07;;;;;;;7.50;6.88;;;10.40;99.90;;;;;;5025642;27;20056;-77
2023/04/07 11:08:34;;;;;;;6.88;6.28;;;10.50;99.90;;;;;;5027458;28;20048;-78
2023/04/07 11:10:59;;;;;;;7.07;6.35;;;10.60;99.90;;;;;;5027914;27;20090;-79
2023/04/07 11:13:26;;;;;;;7.57;6.88;;;10.70;99.90;;;;;;5025642;28;20041;-77
2023/04/07 11:15:52;;;;;;;6.97;6.45;;;10.80;99.90;;;;;;5024128;27;20071;-78
2023/04/07 11:18:20;;;;;;;7.30;6.70;;;11.00;99.90;;;;;;5029381;27;20086;-77
2023/04/07 11:20:57;;;;;;;6.68;6.07;;;10.80;99.90;;;;;;5027467;27;20038;-77
2023/04/07 11:23:24;;;;;;;6.90;6.30;;;10.80;99.90;;;;;;5026044;28;20448;-78
2023/04/07 11:25:52;;;;;;;6.82;6.22;;;10.70;99.90;;;;;;5028327;27;20098;-78
2023/04/07 11:28:18;;;;;;;6.95;6.35;;;10.70;99.90;;;;;;5026555;27;20088;-78
2023/04/07 11:30:52;;;;;;;6.95;6.35;;;10.60;99.90;;;;;;5027918;28;20063;-77
2023/04/07 11:33:26;;;;;;;7.28;6.57;;;10.60;99.90;;;;;;5085461;27;20083;-77
2023/04/07 11:35:54;;;;;;;7.00;6.40;;;10.60;99.90;;;;;;5024807;28;20524;-78
2023/04/07 11:38:21;;;;;;;;;;;10.50;99.90;;;;;;5024271;28;20502;-80
2023/04/07 11:40:47;;;;;;;7.57;6.55;;;10.60;99.90;;;;;;5024483;27;20391;-78
2023/04/07 11:43:26;;;;;;;6.78;6.28;;;10.50;99.90;;;;;;5085658;28;20046;-78
2023/04/07 11:46:13;;;;;;;7.20;6.60;;;10.60;99.90;;;;;;5030921;27;20049;-78
2023/04/07 11:48:41;;;;;;;8.10;7.40;;;10.80;99.90;;;;;;5111285;27;20114;-78
2023/04/07 11:51:19;;;;;;;8.73;8.02;;;10.80;99.90;;;;;;5093259;27;20542;-77
2023/04/07 11:53:45;;;;;;;7.75;7.05;;;10.80;99.90;;;;;;5025264;28;20448;-75
2023/04/07 11:56:16;;;;;;;7.75;7.05;;;10.70;99.90;;;;;;5029008;27;20049;-77
2023/04/07 11:58:49;;;;;;;7.53;6.93;;;10.80;99.90;;;;;;5106617;27;20081;-77
2023/04/07 12:01:15;;;;;;;7.55;6.85;;;10.60;99.90;;;;;;5120594;27;20051;-74
2023/04/07 12:03:58;;;;;;;8.93;8.13;;;10.50;99.90;;;;;;5121143;27;20051;-77
2023/04/07 12:06:32;;;;;;;8.48;7.78;;;10.30;99.90;;;;;;5117179;27;20449;-77
2023/04/07 12:08:57;;;;;;;9.05;8.25;;;10.20;99.90;;;;;;5099953;27;20035;-77
2023/04/07 12:11:24;;;;;;;8.70;7.90;;;10.20;99.90;;;;;;5102945;27;20385;-79
2023/04/07 12:13:50;;;;;;;9.55;8.73;;;10.10;99.90;;;;;;5116035;27;20058;-77
2023/04/07 12:16:16;;;;;;;10.23;8.88;;;10.00;99.90;;;;;;5117147;27;20453;-77
2023/04/07 12:18:42;;;;;;;9.65;8.73;;;10.00;99.90;;;;;;5099534;27;20101;-77
2023/04/07 12:21:08;;;;;;;9.48;8.57;;;10.00;99.90;;;;;;5116378;27;20489;-78
2023/04/07 12:23:33;;;;;;;10.10;9.10;;;10.00;99.90;;;;;;5101812;27;20092;-77
2023/04/07 12:26:00;;;;;;;9.45;8.55;;;10.00;99.90;;;;;;5103432;27;20051;-77
2023/04/07 12:28:26;;;;;;;9.07;8.15;;;10.00;99.90;;;;;;5116724;27;21233;-78
2023/04/07 12:30:52;;;;;;;9.32;8.43;;;10.10;99.90;;;;;;5097265;27;20043;-78
2023/04/07 12:33:18;;;;;;;8.27;7.53;;;10.20;99.90;;;;;;5098038;27;20043;-78
2023/04/07 12:35:43;;;;;;;8.70;7.82;;;10.20;99.90;;;;;;5119012;27;20514;-78
2023/04/07 12:38:09;;;;;;;9.02;8.13;;;10.50;99.90;;;;;;5119487;27;20046;-77
2023/04/07 12:40:35;;;;;;;9.23;8.43;;;10.60;99.90;;;;;;5096969;27;20039;-78